createdAt,value
2022-12-24T00:00:18.786Z,1.95
2022-12-24T00:03:08.942Z,1.58
2022-12-24T00:05:59.459Z,1.35
2022-12-24T00:08:51.070Z,1.85
2022-12-24T00:11:41.399Z,1.67
2022-12-24T00:14:31.915Z,1.50
2022-12-24T00:17:21.774Z,1.85
2022-12-24T00:20:11.846Z,1.25
2022-12-24T00:23:02.053Z,1.90
2022-12-24T00:25:51.849Z,1.75
2022-12-24T00:28:44.932Z,1.88
2022-12-24T00:31:34.809Z,1.73
2022-12-24T00:34:25.740Z,1.75
2022-12-24T00:37:15.761Z,1.70
2022-12-24T00:40:06.567Z,1.48
2022-12-24T00:42:56.772Z,2.03
2022-12-24T00:45:47.055Z,1.90
2022-12-24T00:48:37.428Z,1.45
2022-12-24T00:51:28.036Z,1.27
2022-12-24T00:54:18.378Z,1.60
2022-12-24T00:57:08.172Z,1.80
2022-12-24T00:59:58.096Z,1.65
2022-12-24T01:02:48.178Z,2.15
2022-12-24T01:05:38.576Z,1.55
2022-12-24T01:08:29.108Z,1.60
2022-12-24T01:11:19.472Z,1.50
2022-12-24T01:14:09.756Z,1.98
2022-12-24T01:16:59.580Z,1.80
2022-12-24T01:19:49.343Z,1.85
2022-12-24T01:22:39.191Z,1.40
2022-12-24T01:25:29.057Z,1.63
2022-12-24T01:28:20.577Z,1.42
2022-12-24T01:31:16.195Z,1.58
2022-12-24T01:34:06.471Z,2.10
2022-12-24T01:36:56.562Z,2.13
2022-12-24T01:39:46.358Z,1.90
2022-12-24T01:42:57.525Z,1.88
2022-12-24T01:46:03.544Z,1.55
2022-12-24T01:48:59.976Z,1.25
2022-12-24T01:51:58.318Z,1.75
2022-12-24T01:54:55.835Z,1.58
2022-12-24T01:57:54.821Z,1.45
2022-12-24T02:00:45.165Z,1.75
2022-12-24T02:03:35.663Z,1.60
2022-12-24T02:06:25.908Z,1.70
2022-12-24T02:09:16.224Z,1.75
2022-12-24T02:12:07.243Z,2.20
2022-12-24T02:14:57.496Z,1.63
2022-12-24T02:18:14.845Z,1.85
2022-12-24T02:21:25.541Z,1.60
2022-12-24T02:24:43.778Z,1.88
2022-12-24T02:27:52.393Z,1.70
2022-12-24T02:30:52.005Z,2.05
2022-12-24T02:33:52.875Z,1.75
2022-12-24T02:37:04.111Z,2.38
2022-12-24T02:40:12.142Z,1.67
2022-12-24T02:43:18.166Z,2.03
2022-12-24T02:46:26.427Z,2.35
2022-12-24T02:49:16.895Z,1.88
2022-12-24T02:52:25.600Z,3.13
2022-12-24T02:55:34.452Z,2.10
2022-12-24T02:58:53.219Z,2.08
2022-12-24T03:02:25.410Z,2.30
2022-12-24T03:05:31.641Z,1.90
2022-12-24T03:08:36.203Z,1.73
2022-12-24T03:11:27.783Z,2.20
2022-12-24T03:14:18.696Z,2.03
2022-12-24T03:17:12.494Z,2.00
2022-12-24T03:20:07.575Z,1.88
2022-12-24T03:22:58.778Z,2.20
2022-12-24T03:25:49.693Z,2.10
2022-12-24T03:28:44.588Z,3.97
2022-12-24T03:31:46.221Z,1.65
2022-12-24T03:34:39.080Z,2.15
2022-12-24T03:37:32.453Z,2.33
2022-12-24T03:40:22.953Z,2.40
2022-12-24T03:43:14.088Z,2.50
2022-12-24T03:46:09.367Z,2.30
2022-12-24T03:49:03.622Z,2.13
2022-12-24T03:51:54.458Z,2.10
2022-12-24T03:54:45.838Z,2.10
2022-12-24T03:57:40.329Z,2.30
2022-12-24T04:00:34.533Z,2.17
2022-12-24T04:03:27.371Z,2.50
2022-12-24T04:06:18.073Z,2.53
2022-12-24T04:09:08.275Z,2.92
2022-12-24T04:12:05.491Z,2.70
2022-12-24T04:15:02.368Z,2.92
2022-12-24T04:20:46.403Z,2.55
2022-12-24T04:23:37.957Z,2.97
2022-12-24T04:26:32.609Z,2.40
2022-12-24T04:29:22.825Z,2.50
2022-12-24T04:32:18.549Z,2.50
2022-12-24T04:35:09.597Z,1.92
2022-12-24T04:38:03.653Z,2.30
2022-12-24T04:41:04.794Z,2.13
2022-12-24T04:43:55.404Z,2.78
2022-12-24T04:46:45.434Z,2.30
2022-12-24T04:49:35.796Z,2.15
2022-12-24T04:52:25.825Z,3.33
2022-12-24T04:55:16.181Z,3.10
2022-12-24T04:58:06.394Z,2.80
2022-12-24T05:00:56.221Z,2.60
2022-12-24T05:03:47.141Z,2.60
2022-12-24T05:06:36.983Z,2.40
2022-12-24T05:09:27.025Z,3.08
2022-12-24T05:12:16.928Z,2.35
2022-12-24T05:15:07.394Z,2.78
2022-12-24T05:17:58.372Z,2.90
2022-12-24T05:20:50.460Z,2.70
2022-12-24T05:23:59.195Z,2.17
2022-12-24T05:26:51.981Z,3.17
2022-12-24T05:29:42.071Z,3.20
2022-12-24T05:32:32.524Z,2.28
2022-12-24T05:35:22.810Z,2.38
2022-12-24T05:38:13.232Z,3.17
2022-12-24T05:41:03.717Z,2.53
2022-12-24T05:43:53.759Z,2.08
2022-12-24T05:46:44.383Z,2.40
2022-12-24T05:49:34.500Z,2.40
2022-12-24T05:52:24.841Z,2.40
2022-12-24T05:55:14.890Z,2.63
2022-12-24T05:58:04.910Z,3.13
2022-12-24T06:00:54.788Z,2.83
2022-12-24T06:03:44.896Z,2.92
2022-12-24T06:06:35.202Z,2.80
2022-12-24T06:09:25.335Z,2.65
2022-12-24T06:12:15.968Z,2.70
2022-12-24T06:15:06.555Z,2.33
2022-12-24T06:17:56.724Z,2.63
2022-12-24T06:20:51.208Z,2.50
2022-12-24T06:23:43.281Z,1.98
2022-12-24T06:26:33.403Z,2.47
2022-12-24T06:29:23.483Z,2.40
2022-12-24T06:32:13.369Z,2.47
2022-12-24T06:35:03.309Z,2.20
2022-12-24T06:37:53.585Z,2.28
2022-12-24T06:40:45.871Z,2.50
2022-12-24T06:43:36.029Z,2.83
2022-12-24T06:46:26.559Z,1.88
2022-12-24T06:49:16.807Z,2.65
2022-12-24T06:52:07.046Z,2.72
2022-12-24T06:54:57.559Z,2.60
2022-12-24T06:57:47.367Z,2.47
2022-12-24T07:00:37.374Z,2.38
2022-12-24T07:03:27.527Z,2.60
2022-12-24T07:06:21.522Z,3.10
2022-12-24T07:09:14.329Z,2.60
2022-12-24T07:12:04.783Z,2.15
2022-12-24T07:14:55.067Z,2.80
2022-12-24T07:17:45.354Z,2.45
2022-12-24T07:20:35.817Z,1.92
2022-12-24T07:23:26.319Z,2.33
2022-12-24T07:26:16.531Z,2.20
2022-12-24T07:29:06.673Z,2.10
2022-12-24T07:31:57.018Z,2.33
2022-12-24T07:34:47.509Z,2.67
2022-12-24T07:37:38.032Z,2.63
2022-12-24T07:40:28.148Z,2.67
2022-12-24T07:43:18.376Z,2.70
2022-12-24T07:46:08.378Z,2.83
2022-12-24T07:48:58.587Z,2.22
2022-12-24T07:51:48.623Z,2.33
2022-12-24T07:54:39.512Z,3.03
2022-12-24T07:57:29.597Z,2.55
2022-12-24T08:00:20.143Z,2.50
2022-12-24T08:03:17.886Z,2.67
2022-12-24T08:06:08.944Z,3.15
2022-12-24T08:08:59.299Z,3.33
2022-12-24T08:11:52.469Z,3.03
2022-12-24T08:14:42.746Z,3.30
2022-12-24T08:17:32.827Z,2.50
2022-12-24T08:20:23.182Z,2.30
2022-12-24T08:23:13.553Z,2.22
2022-12-24T08:26:07.732Z,1.80
2022-12-24T08:28:57.959Z,2.35
2022-12-24T08:31:47.922Z,2.33
2022-12-24T08:34:38.381Z,3.45
2022-12-24T08:37:28.644Z,3.20
2022-12-24T08:40:19.087Z,4.13
2022-12-24T08:43:09.469Z,3.13
2022-12-24T08:46:05.678Z,2.90
2022-12-24T08:48:55.624Z,2.88
2022-12-24T08:51:45.537Z,3.08
2022-12-24T08:54:35.586Z,3.13
2022-12-24T08:57:25.846Z,2.45
2022-12-24T09:00:16.555Z,2.92
2022-12-24T09:03:06.791Z,2.70
2022-12-24T09:05:56.947Z,2.50
2022-12-24T09:08:47.456Z,2.55
2022-12-24T09:11:37.279Z,2.58
2022-12-24T09:14:27.218Z,2.10
2022-12-24T09:17:17.980Z,2.53
2022-12-24T09:20:09.236Z,2.45
2022-12-24T09:22:59.803Z,1.90
2022-12-24T09:25:50.230Z,2.60
2022-12-24T09:28:40.969Z,2.63
2022-12-24T09:31:31.018Z,2.40
2022-12-24T09:34:29.821Z,3.92
2022-12-24T09:37:20.501Z,3.13
2022-12-24T09:40:23.401Z,2.92
2022-12-24T09:43:20.625Z,2.78
2022-12-24T09:46:26.742Z,2.25
2022-12-24T09:49:30.986Z,2.53
2022-12-24T09:52:30.896Z,2.45
2022-12-24T09:55:31.000Z,2.40
2022-12-24T09:58:35.644Z,2.58
2022-12-24T10:01:27.106Z,2.10
2022-12-24T10:04:20.593Z,2.25
2022-12-24T10:07:28.738Z,2.90
2022-12-24T10:10:18.481Z,4.15
2022-12-24T10:13:36.074Z,2.92
2022-12-24T10:16:35.281Z,3.17
2022-12-24T10:19:58.813Z,2.25
2022-12-24T10:23:13.435Z,2.50
2022-12-24T10:26:24.980Z,2.45
2022-12-24T10:29:19.605Z,2.30
2022-12-24T10:32:09.727Z,2.72
2022-12-24T10:35:19.208Z,2.45
2022-12-24T10:38:09.706Z,3.00
2022-12-24T10:41:01.235Z,2.60
2022-12-24T10:43:51.942Z,2.78
2022-12-24T10:46:42.751Z,2.88
2022-12-24T10:50:01.016Z,2.80
2022-12-24T10:52:55.637Z,3.30
2022-12-24T10:55:49.054Z,3.05
2022-12-24T10:58:46.915Z,2.60
2022-12-24T11:01:46.632Z,2.90
2022-12-24T11:04:51.918Z,2.20
2022-12-24T11:07:42.502Z,2.70
2022-12-24T11:10:36.732Z,3.40
2022-12-24T11:16:35.670Z,3.25
2022-12-24T11:19:32.869Z,2.72
2022-12-24T11:22:28.897Z,2.85
2022-12-24T11:25:22.429Z,3.10
2022-12-24T11:28:21.187Z,3.38
2022-12-24T11:31:21.241Z,3.58
2022-12-24T11:34:33.539Z,3.97
2022-12-24T11:37:25.217Z,3.65
2022-12-24T11:40:21.825Z,4.07
2022-12-24T11:43:21.559Z,2.97
2022-12-24T11:46:15.092Z,3.53
2022-12-24T11:49:11.506Z,3.60
2022-12-24T11:52:10.652Z,3.83
2022-12-24T11:55:27.130Z,4.18
2022-12-24T11:58:22.523Z,4.32
2022-12-24T12:01:27.267Z,4.00
2022-12-24T12:04:22.177Z,3.72
2022-12-24T12:07:18.686Z,3.90
2022-12-24T12:10:25.066Z,4.68
2022-12-24T12:13:33.054Z,5.00
2022-12-24T12:17:01.475Z,4.00
2022-12-24T12:20:00.453Z,3.63
2022-12-24T12:23:07.439Z,3.53
2022-12-24T12:26:32.001Z,3.65
2022-12-24T12:29:30.054Z,3.92
2022-12-24T12:32:35.383Z,4.53
2022-12-24T12:35:36.857Z,4.15
2022-12-24T12:38:29.280Z,4.22
2022-12-24T12:41:57.053Z,4.20
2022-12-24T12:45:24.735Z,4.40
2022-12-24T12:48:35.398Z,3.78
2022-12-24T12:51:50.971Z,4.00
2022-12-24T12:55:01.362Z,3.65
2022-12-24T12:57:57.885Z,3.92
2022-12-24T13:00:52.776Z,3.78
2022-12-24T13:04:09.974Z,3.40
2022-12-24T13:07:34.186Z,5.07
2022-12-24T13:10:36.857Z,4.53
2022-12-24T13:13:34.031Z,3.58
2022-12-24T13:16:32.865Z,4.07
2022-12-24T13:19:43.589Z,3.83
2022-12-24T13:22:33.618Z,3.53
2022-12-24T13:25:30.670Z,4.35
2022-12-24T13:28:20.740Z,3.33
2022-12-24T13:31:19.868Z,3.78
2022-12-24T13:34:37.450Z,3.60
2022-12-24T13:37:35.025Z,3.40
2022-12-24T13:40:27.329Z,3.25
2022-12-24T13:43:17.650Z,3.72
2022-12-24T13:46:08.178Z,3.30
2022-12-24T13:49:11.875Z,3.35
2022-12-24T13:52:06.816Z,3.55
2022-12-24T13:54:57.059Z,3.28
2022-12-24T13:58:01.773Z,3.63
2022-12-24T14:03:48.121Z,3.40
2022-12-24T14:06:41.871Z,4.05
2022-12-24T14:09:33.263Z,3.55
2022-12-24T14:12:48.004Z,4.18
2022-12-24T14:15:50.542Z,3.25
2022-12-24T14:18:43.845Z,4.10
2022-12-24T14:21:56.633Z,4.40
2022-12-24T14:24:55.042Z,4.68
2022-12-24T14:27:56.401Z,3.92
2022-12-24T14:31:00.519Z,5.35
2022-12-24T14:33:50.950Z,3.90
2022-12-24T14:36:44.140Z,4.93
2022-12-24T14:39:37.569Z,7.03
2022-12-24T14:42:52.926Z,7.50
2022-12-24T14:46:04.976Z,5.28
2022-12-24T14:49:26.098Z,4.40
2022-12-24T14:52:54.526Z,4.25
2022-12-24T14:55:41.443Z,3.75
2022-12-24T14:58:32.945Z,3.95
2022-12-24T15:01:31.838Z,4.03
2022-12-24T15:04:22.203Z,4.47
2022-12-24T15:07:12.467Z,3.88
2022-12-24T15:10:07.366Z,3.90
2022-12-24T15:13:03.358Z,3.88
2022-12-24T15:15:55.474Z,3.97
2022-12-24T15:18:53.413Z,4.20
2022-12-24T15:21:44.128Z,3.60
2022-12-24T15:24:36.583Z,4.28
2022-12-24T15:27:33.079Z,6.50
2022-12-24T15:30:27.327Z,4.38
2022-12-24T15:33:17.376Z,5.05
2022-12-24T15:36:08.140Z,4.65
2022-12-24T15:39:02.126Z,4.53
2022-12-24T15:42:10.599Z,4.85
2022-12-24T15:45:05.703Z,5.35
2022-12-24T15:48:08.472Z,4.72
2022-12-24T15:51:02.718Z,4.40
2022-12-24T15:54:00.175Z,5.10
2022-12-24T15:56:54.059Z,5.07
2022-12-24T16:02:47.985Z,5.15
2022-12-24T16:05:39.751Z,4.78
2022-12-24T16:08:39.954Z,4.93
2022-12-24T16:11:37.175Z,6.25
2022-12-24T16:14:28.225Z,7.35
2022-12-24T16:17:29.519Z,7.30
2022-12-24T16:20:22.220Z,5.95
2022-12-24T16:23:25.955Z,5.93
2022-12-24T16:29:12.238Z,5.95
2022-12-24T16:32:02.867Z,5.72
2022-12-24T16:34:53.703Z,6.95
2022-12-24T16:37:44.061Z,6.60
2022-12-24T16:40:35.429Z,6.65
2022-12-24T16:43:44.141Z,6.28
2022-12-24T16:46:34.934Z,6.47
2022-12-24T16:49:26.385Z,5.60
2022-12-24T16:52:23.318Z,6.80
2022-12-24T16:55:26.449Z,6.47
2022-12-24T16:58:37.912Z,6.57
2022-12-24T17:01:28.348Z,7.63
2022-12-24T17:04:21.656Z,7.90
2022-12-24T17:07:13.513Z,8.27
2022-12-24T17:10:05.106Z,10.15
2022-12-24T17:12:55.973Z,8.38
2022-12-24T17:15:46.392Z,10.65
2022-12-24T17:18:36.760Z,12.38
2022-12-24T17:21:26.801Z,12.30
2022-12-24T17:24:16.740Z,12.90
2022-12-24T17:27:06.937Z,11.00
2022-12-24T17:29:57.101Z,11.52
2022-12-24T17:32:47.344Z,15.07
2022-12-24T17:35:41.554Z,16.63
2022-12-24T17:38:31.962Z,14.45
2022-12-24T17:41:22.351Z,16.13
2022-12-24T17:44:15.625Z,16.60
2022-12-24T17:47:06.178Z,15.27
2022-12-24T17:49:56.250Z,14.65
2022-12-24T17:52:46.223Z,13.00
2022-12-24T17:55:43.141Z,16.73
2022-12-24T17:58:33.776Z,13.65
2022-12-24T18:01:25.956Z,13.60
2022-12-24T18:04:16.513Z,13.98
2022-12-24T18:07:06.369Z,16.40
2022-12-24T18:09:56.443Z,15.98
2022-12-24T18:12:46.855Z,12.98
2022-12-24T18:15:39.998Z,13.05
2022-12-24T18:18:30.337Z,14.23
2022-12-24T18:21:23.531Z,13.68
2022-12-24T18:24:13.781Z,18.50
2022-12-24T18:27:04.066Z,17.17
2022-12-24T18:29:54.179Z,14.10
2022-12-24T18:32:44.763Z,12.85
2022-12-24T18:35:34.805Z,17.48
2022-12-24T18:38:25.161Z,16.38
2022-12-24T18:41:17.802Z,11.77
2022-12-24T18:44:09.783Z,11.25
2022-12-24T18:47:00.295Z,11.65
2022-12-24T18:49:50.482Z,15.45
2022-12-24T18:52:40.480Z,15.52
2022-12-24T18:55:34.940Z,17.75
2022-12-24T18:58:25.059Z,16.23
2022-12-24T19:01:16.401Z,14.70
2022-12-24T19:04:07.115Z,15.52
2022-12-24T19:06:57.040Z,14.07
2022-12-24T19:09:48.372Z,13.77
2022-12-24T19:12:39.064Z,13.13
2022-12-24T19:15:35.450Z,14.65
2022-12-24T19:18:26.841Z,14.05
2022-12-24T19:21:18.053Z,13.82
2022-12-24T19:24:10.487Z,13.60
2022-12-24T19:27:01.210Z,13.07
2022-12-24T19:29:51.522Z,13.35
2022-12-24T19:32:41.891Z,12.52
2022-12-24T19:35:32.841Z,12.32
2022-12-24T19:38:22.714Z,12.43
2022-12-24T19:41:15.291Z,12.50
2022-12-24T19:44:05.701Z,12.55
2022-12-24T19:46:55.652Z,13.48
2022-12-24T19:49:45.655Z,21.05
2022-12-24T19:52:35.764Z,16.45
2022-12-24T19:55:26.029Z,17.67
2022-12-24T19:58:16.689Z,15.52
2022-12-24T20:01:14.839Z,17.17
2022-12-24T20:04:06.484Z,17.25
2022-12-24T20:07:00.520Z,17.90
2022-12-24T20:09:50.816Z,16.58
2022-12-24T20:12:41.051Z,16.95
2022-12-24T20:15:31.312Z,16.45
2022-12-24T20:18:21.831Z,16.92
2022-12-24T20:21:13.091Z,16.92
2022-12-24T20:24:04.058Z,16.23
2022-12-24T20:26:54.165Z,16.10
2022-12-24T20:29:44.494Z,16.77
2022-12-24T20:32:34.858Z,17.65
2022-12-24T20:35:25.341Z,14.77
2022-12-24T20:38:15.832Z,15.68
2022-12-24T20:41:07.131Z,17.08
2022-12-24T20:43:58.990Z,15.70
2022-12-24T20:46:48.958Z,20.42
2022-12-24T20:49:40.985Z,19.95
2022-12-24T20:52:31.341Z,18.17
2022-12-24T20:55:21.704Z,17.48
2022-12-24T20:58:13.264Z,17.75
2022-12-24T21:01:12.247Z,20.67
2022-12-24T21:04:04.868Z,18.85
2022-12-24T21:06:55.357Z,16.85
2022-12-24T21:09:45.245Z,16.38
2022-12-24T21:12:50.347Z,16.98
2022-12-24T21:15:41.183Z,16.95
2022-12-24T21:18:31.639Z,16.25
2022-12-24T21:21:21.733Z,18.13
2022-12-24T21:24:11.852Z,18.05
2022-12-24T21:27:02.092Z,18.42
2022-12-24T21:29:52.284Z,19.73
2022-12-24T21:32:42.783Z,18.85
2022-12-24T21:35:33.513Z,18.65
2022-12-24T21:38:23.682Z,18.90
2022-12-24T21:41:17.228Z,17.92
2022-12-24T21:44:07.383Z,17.50
2022-12-24T21:46:57.950Z,18.15
2022-12-24T21:50:06.863Z,16.23
2022-12-24T21:53:16.850Z,18.17
2022-12-24T21:56:11.450Z,17.27
2022-12-24T21:59:01.570Z,18.60
2022-12-24T22:01:51.571Z,19.75
2022-12-24T22:04:42.520Z,19.02
2022-12-24T22:07:51.137Z,12.60
2022-12-24T22:10:59.997Z,6.63
2022-12-24T22:13:50.004Z,4.70
2022-12-24T22:16:40.566Z,5.25
2022-12-24T22:19:30.895Z,7.65
2022-12-24T22:22:21.663Z,10.18
2022-12-24T22:25:11.736Z,8.38
2022-12-24T22:28:01.912Z,9.27
2022-12-24T22:30:52.555Z,7.50
2022-12-24T22:33:42.801Z,7.68
2022-12-24T22:36:33.718Z,7.28
2022-12-24T22:39:23.951Z,7.90
2022-12-24T22:42:13.940Z,7.20
2022-12-24T22:45:05.406Z,5.10
2022-12-24T22:47:55.566Z,4.82
2022-12-24T22:50:45.462Z,4.60
2022-12-24T22:53:36.859Z,4.88
2022-12-24T22:56:27.645Z,4.72
2022-12-24T22:59:17.936Z,4.40
2022-12-24T23:02:08.281Z,4.70
2022-12-24T23:04:58.574Z,4.40
2022-12-24T23:07:48.909Z,5.13
2022-12-24T23:10:40.043Z,4.65
2022-12-24T23:13:48.816Z,6.47
2022-12-24T23:16:39.024Z,4.15
2022-12-24T23:19:29.463Z,4.10
2022-12-24T23:22:19.479Z,4.07
2022-12-24T23:25:10.195Z,3.88
2022-12-24T23:28:00.130Z,3.33
2022-12-24T23:30:57.850Z,3.65
2022-12-24T23:33:48.607Z,3.63
2022-12-24T23:36:38.793Z,3.65
2022-12-24T23:39:36.986Z,3.28
2022-12-24T23:42:28.345Z,3.90
2022-12-24T23:45:18.315Z,3.70
2022-12-24T23:48:08.166Z,3.30
2022-12-24T23:51:13.395Z,3.95
2022-12-24T23:54:03.597Z,3.53
2022-12-24T23:56:53.726Z,3.55
2022-12-24T23:59:44.222Z,3.70
